createdAt,value
2024-02-10T00:03:25.279Z,65.11
2024-02-10T00:08:28.932Z,65.10
2024-02-10T00:13:36.340Z,65.38
2024-02-10T00:18:42.183Z,65.61
2024-02-10T00:23:45.509Z,65.33
2024-02-10T00:28:49.949Z,65.32
2024-02-10T00:33:52.531Z,65.82
2024-02-10T00:38:55.039Z,66.26
2024-02-10T00:43:57.498Z,66.33
2024-02-10T00:49:01.601Z,66.83
2024-02-10T00:54:05.698Z,66.74
2024-02-10T00:59:10.969Z,66.20
2024-02-10T01:04:13.524Z,65.79
2024-02-10T01:09:16.227Z,66.10
2024-02-10T01:14:18.685Z,67.03
2024-02-10T01:19:21.615Z,67.22
2024-02-10T01:24:28.865Z,67.64
2024-02-10T01:29:31.462Z,67.34
2024-02-10T01:34:34.869Z,66.91
2024-02-10T01:39:37.355Z,66.67
2024-02-10T01:44:44.254Z,66.32
2024-02-10T01:49:46.857Z,66.17
2024-02-10T01:54:49.897Z,66.01
2024-02-10T01:59:52.505Z,66.02
2024-02-10T02:04:58.172Z,66.24
2024-02-10T02:10:01.777Z,66.02
2024-02-10T02:15:07.003Z,65.98
2024-02-10T02:20:11.405Z,66.23
2024-02-10T02:25:14.094Z,66.45
2024-02-10T02:30:17.319Z,67.05
2024-02-10T02:35:19.998Z,66.76
2024-02-10T02:40:25.742Z,67.11
2024-02-10T02:45:29.092Z,66.81
2024-02-10T02:50:32.406Z,66.52
2024-02-10T02:55:34.940Z,65.85
2024-02-10T03:00:39.645Z,65.81
2024-02-10T03:05:42.345Z,66.57
2024-02-10T03:10:44.827Z,67.06
2024-02-10T03:15:47.501Z,67.13
2024-02-10T03:20:49.923Z,67.51
2024-02-10T03:26:00.287Z,67.45
2024-02-10T03:31:03.193Z,67.56
2024-02-10T03:36:06.264Z,67.41
2024-02-10T03:41:14.479Z,67.27
2024-02-10T03:46:18.103Z,67.38
2024-02-10T03:51:20.659Z,67.87
2024-02-10T03:56:27.955Z,67.57
2024-02-10T04:01:30.916Z,67.39
2024-02-10T04:06:33.491Z,67.33
2024-02-10T04:11:35.951Z,67.20
2024-02-10T04:16:42.884Z,66.84
2024-02-10T04:21:47.832Z,67.13
2024-02-10T04:26:50.490Z,66.99
2024-02-10T04:32:00.149Z,66.82
2024-02-10T04:37:02.909Z,66.77
2024-02-10T04:42:07.343Z,66.48
2024-02-10T04:47:10.899Z,66.40
2024-02-10T04:52:13.308Z,66.48
2024-02-10T04:57:15.854Z,66.14
2024-02-10T05:02:18.686Z,65.89
2024-02-10T05:07:21.246Z,65.98
2024-02-10T05:12:24.041Z,65.94
2024-02-10T05:17:26.526Z,66.21
2024-02-10T05:22:30.320Z,66.34
2024-02-10T05:27:33.076Z,66.13
2024-02-10T05:32:35.783Z,66.18
2024-02-10T05:37:39.872Z,65.64
2024-02-10T05:42:44.588Z,65.66
2024-02-10T05:47:48.488Z,65.56
2024-02-10T05:52:52.869Z,65.45
2024-02-10T05:57:57.445Z,65.51
2024-02-10T06:03:01.275Z,66.12
2024-02-10T06:08:04.783Z,66.43
2024-02-10T06:13:07.931Z,66.17
2024-02-10T06:18:10.610Z,66.08
2024-02-10T06:23:13.005Z,65.84
2024-02-10T06:28:17.988Z,65.31
2024-02-10T06:33:20.486Z,65.01
2024-02-10T06:38:22.968Z,64.79
2024-02-10T06:43:26.834Z,64.78
2024-02-10T06:48:31.079Z,64.77
2024-02-10T06:53:33.772Z,64.80
2024-02-10T06:58:36.298Z,64.88
2024-02-10T07:03:38.734Z,65.00
2024-02-10T07:08:41.753Z,64.87
2024-02-10T07:13:44.221Z,64.85
2024-02-10T07:18:47.970Z,64.85
2024-02-10T07:23:51.495Z,65.11
2024-02-10T07:28:54.811Z,65.27
2024-02-10T07:34:00.064Z,65.31
2024-02-10T07:39:09.738Z,65.17
2024-02-10T07:44:14.320Z,65.30
2024-02-10T07:49:22.321Z,65.32
2024-02-10T07:54:25.091Z,65.17
2024-02-10T07:59:27.650Z,65.44
2024-02-10T08:04:30.161Z,65.71
2024-02-10T08:09:32.649Z,65.12
2024-02-10T08:14:37.570Z,64.62
2024-02-10T08:19:40.720Z,64.45
2024-02-10T08:24:44.516Z,64.52
2024-02-10T08:29:47.199Z,64.69
2024-02-10T08:34:51.075Z,65.16
2024-02-10T08:39:53.586Z,65.35
2024-02-10T08:44:56.031Z,65.35
2024-02-10T08:49:58.561Z,65.61
2024-02-10T08:55:05.221Z,65.69
2024-02-10T09:00:09.802Z,66.23
2024-02-10T09:05:12.366Z,66.43
2024-02-10T09:10:16.161Z,66.77
2024-02-10T09:15:18.576Z,67.00
2024-02-10T09:20:22.301Z,66.72
2024-02-10T09:25:27.258Z,66.49
2024-02-10T09:30:44.210Z,65.73
2024-02-10T09:35:46.696Z,65.31
2024-02-10T09:40:57.995Z,64.95
2024-02-10T09:46:07.826Z,65.14
2024-02-10T09:51:10.438Z,65.68
2024-02-10T09:56:14.897Z,65.59
2024-02-10T10:01:17.805Z,65.04
2024-02-10T10:06:21.806Z,64.90
2024-02-10T10:11:24.371Z,64.98
2024-02-10T10:16:26.830Z,64.76
2024-02-10T10:21:31.664Z,64.74
2024-02-10T10:26:34.244Z,64.35
2024-02-10T10:31:39.643Z,64.73
2024-02-10T10:36:44.712Z,64.63
2024-02-10T10:41:47.433Z,64.51
2024-02-10T10:46:52.992Z,64.28
2024-02-10T10:52:05.751Z,64.42
2024-02-10T10:57:17.942Z,64.79
2024-02-10T11:02:29.994Z,64.95
2024-02-10T11:07:46.131Z,64.70
2024-02-10T11:12:48.773Z,64.86
2024-02-10T11:17:58.804Z,65.25
2024-02-10T11:23:22.109Z,65.32
2024-02-10T11:28:25.012Z,64.99
2024-02-10T11:33:27.697Z,64.83
2024-02-10T11:38:30.409Z,64.68
2024-02-10T11:43:35.903Z,64.88
2024-02-10T11:48:38.402Z,64.86
2024-02-10T11:53:45.843Z,64.62
2024-02-10T11:58:48.645Z,64.49
2024-02-10T12:03:51.931Z,63.87
2024-02-10T12:08:55.588Z,63.77
2024-02-10T12:13:58.090Z,63.64
2024-02-10T12:19:02.451Z,63.72
2024-02-10T12:24:05.581Z,63.46
2024-02-10T12:29:14.110Z,63.29
2024-02-10T12:34:18.514Z,63.49
2024-02-10T12:39:21.155Z,63.81
2024-02-10T12:44:23.778Z,63.94
2024-02-10T12:49:27.827Z,63.76
2024-02-10T12:54:31.435Z,63.81
2024-02-10T12:59:34.718Z,63.88
2024-02-10T13:04:37.710Z,64.25
2024-02-10T13:09:40.283Z,64.56
2024-02-10T13:14:42.800Z,64.67
2024-02-10T13:19:45.507Z,64.97
2024-02-10T13:24:48.042Z,64.86
2024-02-10T13:29:51.261Z,65.03
2024-02-10T13:40:20.079Z,65.03
2024-02-10T13:45:38.516Z,65.22
2024-02-10T13:50:55.939Z,65.54
2024-02-10T13:56:14.425Z,65.93
2024-02-10T14:01:19.825Z,65.97
2024-02-10T14:06:33.672Z,65.96
2024-02-10T14:11:39.390Z,66.11
2024-02-10T14:16:44.408Z,66.41
2024-02-10T14:21:49.409Z,66.61
2024-02-10T14:27:02.126Z,66.91
2024-02-10T14:32:14.275Z,66.98
2024-02-10T14:37:28.710Z,67.10
2024-02-10T14:42:35.210Z,67.20
2024-02-10T14:47:37.956Z,67.41
2024-02-10T14:52:42.907Z,67.51
2024-02-10T14:57:45.405Z,67.35
2024-02-10T15:02:48.817Z,67.35
2024-02-10T15:07:51.390Z,67.19
2024-02-10T15:12:55.591Z,66.96
2024-02-10T15:18:01.636Z,66.63
2024-02-10T15:23:04.462Z,66.72
2024-02-10T15:28:15.297Z,66.73
2024-02-10T15:33:19.713Z,66.72
2024-02-10T15:38:23.976Z,66.74
2024-02-10T15:43:27.970Z,66.54
2024-02-10T15:48:31.340Z,66.68
2024-02-10T15:53:33.816Z,66.89
2024-02-10T15:58:37.918Z,67.22
2024-02-10T16:03:41.982Z,67.48
2024-02-10T16:08:46.293Z,67.70
2024-02-10T16:13:48.955Z,67.26
2024-02-10T16:18:51.532Z,67.12
2024-02-10T16:23:55.082Z,66.97
2024-02-10T16:28:58.162Z,67.15
2024-02-10T16:34:01.253Z,66.96
2024-02-10T16:39:10.557Z,66.81
2024-02-10T16:44:13.168Z,66.82
2024-02-10T16:49:16.329Z,66.88
2024-02-10T16:54:19.074Z,66.96
2024-02-10T16:59:23.378Z,66.99
2024-02-10T17:04:28.182Z,67.00
2024-02-10T17:09:30.946Z,66.88
2024-02-10T17:14:33.563Z,66.73
2024-02-10T17:19:37.691Z,66.61
2024-02-10T17:24:42.821Z,66.53
2024-02-10T17:29:46.423Z,66.23
2024-02-10T17:34:52.736Z,66.41
2024-02-10T17:39:56.750Z,65.90
2024-02-10T17:45:00.682Z,66.58
2024-02-10T17:50:07.478Z,66.83
2024-02-10T17:55:10.601Z,66.70
2024-02-10T18:00:17.005Z,65.91
2024-02-10T18:05:28.121Z,66.28
2024-02-10T18:10:30.727Z,65.97
2024-02-10T18:15:33.325Z,66.21
2024-02-10T18:20:35.848Z,65.90
2024-02-10T18:25:43.372Z,66.16
2024-02-10T18:30:47.646Z,66.24
2024-02-10T18:35:50.348Z,66.58
2024-02-10T18:40:52.989Z,67.09
2024-02-10T18:45:55.507Z,67.31
2024-02-10T18:50:58.294Z,67.52
2024-02-10T18:56:05.620Z,67.70
2024-02-10T19:01:08.477Z,67.01
2024-02-10T19:06:10.970Z,66.97
2024-02-10T19:11:13.451Z,67.12
2024-02-10T19:16:17.322Z,67.24
2024-02-10T19:21:20.487Z,67.55
2024-02-10T19:26:23.027Z,67.12
2024-02-10T19:31:25.763Z,67.08
2024-02-10T19:36:30.984Z,66.67
2024-02-10T19:41:33.601Z,66.48
2024-02-10T19:46:37.427Z,66.35
2024-02-10T19:51:43.016Z,66.67
2024-02-10T19:56:48.818Z,66.66
2024-02-10T20:01:52.536Z,66.38
2024-02-10T20:06:57.280Z,66.15
2024-02-10T20:12:01.363Z,66.16
2024-02-10T20:17:08.935Z,66.21
2024-02-10T20:22:14.414Z,66.25
2024-02-10T20:27:18.361Z,66.25
2024-02-10T20:32:23.415Z,66.40
2024-02-10T20:37:26.737Z,66.64
2024-02-10T20:42:29.436Z,66.62
2024-02-10T20:47:39.352Z,66.54
2024-02-10T20:52:42.033Z,66.56
2024-02-10T20:57:48.744Z,66.40
2024-02-10T21:02:51.245Z,66.54
2024-02-10T21:07:53.753Z,66.73
2024-02-10T21:12:56.603Z,66.78
2024-02-10T21:18:04.390Z,66.92
2024-02-10T21:23:07.288Z,66.79
2024-02-10T21:28:10.269Z,66.60
2024-02-10T21:33:13.546Z,66.68
2024-02-10T21:38:16.325Z,66.46
2024-02-10T21:43:21.883Z,66.57
2024-02-10T21:48:24.420Z,66.44
2024-02-10T21:53:27.071Z,66.70
2024-02-10T21:58:29.721Z,67.07
2024-02-10T22:03:32.418Z,66.91
2024-02-10T22:08:34.948Z,66.78
2024-02-10T22:13:37.784Z,66.70
2024-02-10T22:18:42.969Z,66.54
2024-02-10T22:23:47.234Z,66.16
2024-02-10T22:28:49.837Z,66.55
2024-02-10T22:33:54.092Z,66.58
2024-02-10T22:38:56.665Z,66.93
2024-02-10T22:44:00.585Z,67.09
2024-02-10T22:49:04.270Z,67.25
2024-02-10T22:54:07.010Z,67.45
2024-02-10T22:59:13.616Z,67.51
2024-02-10T23:04:16.362Z,67.60
2024-02-10T23:09:19.453Z,67.43
2024-02-10T23:14:25.627Z,67.52
2024-02-10T23:19:30.967Z,67.51
2024-02-10T23:24:33.520Z,67.65
2024-02-10T23:29:38.472Z,67.94
2024-02-10T23:34:42.366Z,68.17
2024-02-10T23:39:46.188Z,68.15
2024-02-10T23:44:49.434Z,68.39
2024-02-10T23:49:54.693Z,68.15
2024-02-10T23:54:58.733Z,67.79
